createdAt,value
2017-12-30T00:00:01.936Z,4.60
2017-12-30T00:02:29.430Z,4.60
2017-12-30T00:04:57.709Z,4.70
2017-12-30T00:07:25.935Z,4.70
2017-12-30T00:09:53.383Z,4.70
2017-12-30T00:12:20.880Z,4.70
2017-12-30T00:14:48.363Z,4.70
2017-12-30T00:17:15.808Z,4.70
2017-12-30T00:19:44.057Z,4.70
2017-12-30T00:22:11.554Z,4.60
2017-12-30T00:24:39.000Z,4.70
2017-12-30T00:27:06.501Z,4.70
2017-12-30T00:29:34.002Z,4.80
2017-12-30T00:32:02.261Z,4.80
2017-12-30T00:34:29.703Z,4.80
2017-12-30T00:36:57.194Z,4.80
2017-12-30T00:39:25.461Z,4.80
2017-12-30T00:41:52.937Z,4.70
2017-12-30T00:44:21.151Z,4.70
2017-12-30T00:46:48.638Z,4.70
2017-12-30T00:49:16.125Z,4.80
2017-12-30T00:51:43.563Z,4.70
2017-12-30T00:54:11.794Z,4.70
2017-12-30T00:56:39.292Z,4.70
2017-12-30T00:59:06.744Z,4.70
2017-12-30T01:01:34.195Z,4.70
2017-12-30T01:04:01.641Z,4.70
2017-12-30T01:06:29.091Z,4.70
2017-12-30T01:08:56.543Z,4.70
2017-12-30T01:11:23.987Z,4.70
2017-12-30T01:13:52.114Z,4.80
2017-12-30T01:16:21.207Z,4.90
2017-12-30T01:18:49.427Z,4.80
2017-12-30T01:21:16.920Z,4.80
2017-12-30T01:23:44.373Z,4.80
2017-12-30T01:26:11.816Z,4.90
2017-12-30T01:28:39.283Z,4.80
2017-12-30T01:31:07.519Z,4.80
2017-12-30T01:33:34.987Z,4.80
2017-12-30T01:36:02.500Z,4.80
2017-12-30T01:38:30.730Z,4.70
2017-12-30T01:40:58.176Z,4.60
2017-12-30T01:43:25.709Z,4.50
2017-12-30T01:45:53.167Z,4.50
2017-12-30T01:48:20.631Z,4.50
2017-12-30T01:50:48.105Z,4.40
2017-12-30T01:53:15.551Z,4.30
2017-12-30T01:55:43.013Z,4.20
2017-12-30T01:58:10.454Z,4.20
2017-12-30T02:00:37.902Z,4.10
2017-12-30T02:03:05.353Z,4.00
2017-12-30T02:05:32.810Z,4.00
2017-12-30T02:08:00.270Z,4.10
2017-12-30T02:10:27.728Z,4.10
2017-12-30T02:12:55.179Z,4.00
2017-12-30T02:15:22.634Z,4.10
2017-12-30T02:17:50.089Z,4.10
2017-12-30T02:20:17.547Z,4.00
2017-12-30T02:22:44.988Z,4.10
2017-12-30T02:25:12.436Z,4.10
2017-12-30T02:27:39.882Z,4.20
2017-12-30T02:30:08.097Z,4.10
2017-12-30T02:32:35.545Z,4.10
2017-12-30T02:35:03.007Z,4.00
2017-12-30T02:37:30.459Z,4.00
2017-12-30T02:39:57.911Z,4.00
2017-12-30T02:42:25.371Z,4.10
2017-12-30T02:44:52.828Z,4.10
2017-12-30T02:47:21.047Z,4.30
2017-12-30T02:49:48.502Z,4.20
2017-12-30T02:52:15.951Z,4.40
2017-12-30T02:54:43.403Z,4.50
2017-12-30T02:57:10.855Z,4.50
2017-12-30T02:59:38.300Z,4.50
2017-12-30T03:02:05.768Z,4.60
2017-12-30T03:04:33.208Z,4.60
2017-12-30T03:07:00.656Z,4.60
2017-12-30T03:09:28.111Z,4.60
2017-12-30T03:11:55.562Z,4.50
2017-12-30T03:14:23.019Z,4.50
2017-12-30T03:16:50.483Z,4.50
2017-12-30T03:19:17.927Z,4.50
2017-12-30T03:21:45.384Z,4.50
2017-12-30T03:24:12.836Z,4.50
2017-12-30T03:26:40.294Z,4.50
2017-12-30T03:29:07.751Z,4.50
2017-12-30T03:31:35.206Z,4.40
2017-12-30T03:34:02.667Z,4.30
2017-12-30T03:36:30.120Z,4.20
2017-12-30T03:38:57.579Z,4.00
2017-12-30T03:41:25.031Z,3.90
2017-12-30T03:43:52.487Z,3.80
2017-12-30T03:46:19.958Z,4.10
2017-12-30T03:48:47.419Z,4.10
2017-12-30T03:51:14.879Z,4.10
2017-12-30T03:53:42.330Z,4.10
2017-12-30T03:56:09.786Z,4.10
2017-12-30T03:58:37.234Z,4.10
2017-12-30T04:01:04.705Z,4.10
2017-12-30T04:03:32.151Z,4.10
2017-12-30T04:05:59.611Z,4.00
2017-12-30T04:08:27.070Z,4.00
2017-12-30T04:10:54.514Z,4.00
2017-12-30T04:13:21.969Z,3.80
2017-12-30T04:15:49.416Z,3.70
2017-12-30T04:18:16.871Z,3.70
2017-12-30T04:20:44.327Z,3.80
2017-12-30T04:23:11.783Z,3.80
2017-12-30T04:25:39.245Z,3.80
2017-12-30T04:28:06.695Z,3.80
2017-12-30T04:30:34.152Z,3.90
2017-12-30T04:33:01.614Z,3.90
2017-12-30T04:35:29.067Z,3.90
2017-12-30T04:37:56.523Z,3.90
2017-12-30T04:40:23.975Z,3.90
2017-12-30T04:42:51.440Z,3.80
2017-12-30T04:45:18.887Z,3.80
2017-12-30T04:47:46.347Z,3.70
2017-12-30T04:50:13.800Z,3.80
2017-12-30T04:52:41.264Z,3.80
2017-12-30T04:55:08.714Z,3.70
2017-12-30T04:57:36.171Z,3.70
2017-12-30T05:00:03.626Z,3.70
2017-12-30T05:02:31.078Z,3.60
2017-12-30T05:04:58.519Z,3.60
2017-12-30T05:07:25.979Z,3.50
2017-12-30T05:09:53.426Z,3.60
2017-12-30T05:12:20.906Z,3.50
2017-12-30T05:14:48.363Z,3.60
2017-12-30T05:17:15.820Z,3.60
2017-12-30T05:19:43.271Z,3.60
2017-12-30T05:22:10.726Z,3.70
2017-12-30T05:24:38.190Z,3.70
2017-12-30T05:27:05.642Z,3.70
2017-12-30T05:29:33.100Z,3.70
2017-12-30T05:32:01.315Z,3.80
2017-12-30T05:34:28.759Z,3.80
2017-12-30T05:36:56.199Z,3.80
2017-12-30T05:39:23.642Z,3.90
2017-12-30T05:41:51.095Z,4.00
2017-12-30T05:44:18.558Z,4.00
2017-12-30T05:46:46.010Z,4.00
2017-12-30T05:49:13.463Z,4.00
2017-12-30T05:51:40.918Z,3.80
2017-12-30T05:54:08.374Z,3.70
2017-12-30T05:56:35.830Z,3.50
2017-12-30T05:59:03.286Z,3.50
2017-12-30T06:01:30.747Z,3.50
2017-12-30T06:03:58.210Z,3.60
2017-12-30T06:06:25.655Z,3.60
2017-12-30T06:08:53.110Z,3.70
2017-12-30T06:11:20.568Z,3.90
2017-12-30T06:13:48.023Z,4.10
2017-12-30T06:16:15.478Z,4.30
2017-12-30T06:18:42.940Z,4.60
2017-12-30T06:21:10.392Z,4.60
2017-12-30T06:23:37.848Z,4.70
2017-12-30T06:26:05.302Z,4.60
2017-12-30T06:28:33.019Z,4.50
2017-12-30T06:31:00.462Z,4.40
2017-12-30T06:33:27.919Z,4.40
2017-12-30T06:35:55.374Z,4.40
2017-12-30T06:38:22.827Z,4.40
2017-12-30T06:40:50.300Z,4.50
2017-12-30T06:43:17.743Z,4.40
2017-12-30T06:45:45.203Z,4.40
2017-12-30T06:48:12.655Z,4.40
2017-12-30T06:50:40.121Z,4.50
2017-12-30T06:53:07.575Z,4.50
2017-12-30T06:55:35.031Z,4.40
2017-12-30T06:58:02.487Z,4.40
2017-12-30T07:00:29.943Z,4.30
2017-12-30T07:02:57.391Z,4.40
2017-12-30T07:05:24.843Z,4.40
2017-12-30T07:07:52.304Z,4.40
2017-12-30T07:10:19.755Z,4.40
2017-12-30T07:12:47.199Z,4.40
2017-12-30T07:15:14.656Z,4.40
2017-12-30T07:17:42.111Z,4.40
2017-12-30T07:20:09.569Z,4.40
2017-12-30T07:22:37.027Z,4.30
2017-12-30T07:25:04.492Z,4.30
2017-12-30T07:27:31.947Z,4.30
2017-12-30T07:29:59.403Z,4.30
2017-12-30T07:32:26.862Z,4.20
2017-12-30T07:34:54.321Z,4.20
2017-12-30T07:37:21.773Z,4.20
2017-12-30T07:39:49.231Z,4.20
2017-12-30T07:42:16.687Z,4.20
2017-12-30T07:44:44.132Z,4.20
2017-12-30T07:47:11.595Z,4.20
2017-12-30T07:49:39.054Z,4.20
2017-12-30T07:52:06.502Z,4.20
2017-12-30T07:54:33.953Z,4.20
2017-12-30T07:57:01.408Z,4.10
2017-12-30T07:59:28.862Z,4.10
2017-12-30T08:01:56.322Z,4.10
2017-12-30T08:04:23.828Z,4.10
2017-12-30T08:06:51.272Z,4.10
2017-12-30T08:09:18.775Z,4.00
2017-12-30T08:11:46.227Z,4.00
2017-12-30T08:14:13.688Z,3.90
2017-12-30T08:16:41.147Z,3.90
2017-12-30T08:19:08.604Z,3.80
2017-12-30T08:21:36.054Z,3.80
2017-12-30T08:24:03.503Z,3.80
2017-12-30T08:26:30.963Z,3.80
2017-12-30T08:28:58.418Z,3.80
2017-12-30T08:31:26.670Z,3.80
2017-12-30T08:33:54.171Z,3.80
2017-12-30T08:36:21.625Z,3.80
2017-12-30T08:38:49.090Z,3.80
2017-12-30T08:41:16.551Z,3.90
2017-12-30T08:43:44.004Z,4.00
2017-12-30T08:46:11.465Z,4.10
2017-12-30T08:48:38.910Z,4.10
2017-12-30T08:51:06.359Z,4.20
2017-12-30T08:53:33.823Z,4.30
2017-12-30T08:56:01.275Z,4.40
2017-12-30T08:58:29.729Z,4.40
2017-12-30T09:00:57.170Z,4.40
2017-12-30T09:03:24.628Z,4.40
2017-12-30T09:05:52.075Z,4.50
2017-12-30T09:08:19.530Z,4.50
2017-12-30T09:10:46.975Z,4.50
2017-12-30T09:13:15.207Z,4.60
2017-12-30T09:15:42.664Z,4.60
2017-12-30T09:18:10.135Z,4.60
2017-12-30T09:20:37.593Z,4.70
2017-12-30T09:23:05.047Z,4.70
2017-12-30T09:25:32.504Z,4.80
2017-12-30T09:27:59.991Z,4.80
2017-12-30T09:30:27.964Z,4.80
2017-12-30T09:32:55.427Z,4.80
2017-12-30T09:35:22.879Z,4.80
2017-12-30T09:37:50.339Z,4.90
2017-12-30T09:40:17.791Z,4.90
2017-12-30T09:42:45.238Z,4.90
2017-12-30T09:45:13.454Z,5.00
2017-12-30T09:47:40.911Z,4.90
2017-12-30T09:50:08.372Z,5.00
2017-12-30T09:52:35.828Z,5.00
2017-12-30T09:55:03.287Z,5.00
2017-12-30T09:57:30.747Z,5.00
2017-12-30T09:59:58.204Z,5.00
2017-12-30T10:02:25.664Z,5.00
2017-12-30T10:04:53.115Z,5.10
2017-12-30T10:07:20.579Z,5.10
2017-12-30T10:09:48.056Z,5.10
2017-12-30T10:12:15.503Z,5.10
2017-12-30T10:14:42.955Z,5.10
2017-12-30T10:17:10.408Z,5.10
2017-12-30T10:19:37.867Z,5.10
2017-12-30T10:22:05.323Z,5.10
2017-12-30T10:24:32.780Z,5.20
2017-12-30T10:27:00.259Z,5.30
2017-12-30T10:29:28.478Z,5.50
2017-12-30T10:31:55.922Z,5.40
2017-12-30T10:34:23.363Z,5.50
2017-12-30T10:36:50.804Z,5.50
2017-12-30T10:39:19.040Z,5.60
2017-12-30T10:41:47.031Z,5.60
2017-12-30T10:44:14.474Z,5.50
2017-12-30T10:46:41.949Z,5.50
2017-12-30T10:49:09.399Z,5.50
2017-12-30T10:51:36.859Z,5.50
2017-12-30T10:54:04.309Z,5.70
2017-12-30T10:56:31.765Z,5.70
2017-12-30T10:58:59.202Z,5.70
2017-12-30T11:01:26.667Z,5.80
2017-12-30T11:03:54.124Z,6.10
2017-12-30T11:06:21.571Z,6.20
2017-12-30T11:08:49.041Z,6.40
2017-12-30T11:11:16.476Z,6.60
2017-12-30T11:13:43.931Z,6.60
2017-12-30T11:16:11.383Z,6.90
2017-12-30T11:18:38.823Z,7.10
2017-12-30T11:21:06.279Z,7.10
2017-12-30T11:23:33.718Z,7.10
2017-12-30T11:26:01.167Z,7.10
2017-12-30T11:28:28.623Z,7.20
2017-12-30T11:30:56.070Z,7.40
2017-12-30T11:33:24.275Z,7.40
2017-12-30T11:35:51.730Z,7.40
2017-12-30T11:38:19.187Z,7.50
2017-12-30T11:40:46.640Z,7.60
2017-12-30T11:43:14.086Z,7.60
2017-12-30T11:45:42.295Z,7.70
2017-12-30T11:48:09.747Z,7.60
2017-12-30T11:50:37.223Z,7.70
2017-12-30T11:53:04.752Z,7.70
2017-12-30T11:55:32.203Z,7.60
2017-12-30T11:57:59.711Z,7.60
2017-12-30T12:00:27.935Z,7.80
2017-12-30T12:02:55.420Z,7.80
2017-12-30T12:05:22.871Z,7.80
2017-12-30T12:07:50.339Z,7.90
2017-12-30T12:10:17.787Z,7.90
2017-12-30T12:12:45.241Z,8.00
2017-12-30T12:15:12.691Z,8.00
2017-12-30T12:17:40.147Z,8.00
2017-12-30T12:20:07.700Z,8.10
2017-12-30T12:22:35.141Z,8.20
2017-12-30T12:25:02.620Z,8.40
2017-12-30T12:27:30.077Z,8.50
2017-12-30T12:29:57.528Z,8.50
2017-12-30T12:32:24.995Z,8.50
2017-12-30T12:34:52.438Z,8.50
2017-12-30T12:37:19.891Z,8.50
2017-12-30T12:39:47.339Z,8.50
2017-12-30T12:42:14.831Z,8.50
2017-12-30T12:44:42.287Z,8.50
2017-12-30T12:47:09.737Z,8.60
2017-12-30T12:49:37.180Z,8.60
2017-12-30T12:52:04.632Z,8.60
2017-12-30T12:54:32.092Z,8.60
2017-12-30T12:56:59.536Z,8.70
2017-12-30T12:59:26.983Z,8.80
2017-12-30T13:01:54.435Z,8.80
2017-12-30T13:04:21.995Z,8.80
2017-12-30T13:06:49.442Z,8.80
2017-12-30T13:09:16.892Z,8.80
2017-12-30T13:11:44.373Z,8.90
2017-12-30T13:14:11.814Z,8.90
2017-12-30T13:16:39.255Z,9.00
2017-12-30T13:19:06.703Z,9.10
2017-12-30T13:21:34.152Z,9.10
2017-12-30T13:24:02.384Z,9.10
2017-12-30T13:26:33.271Z,9.10
2017-12-30T13:28:57.291Z,9.20
2017-12-30T13:31:24.740Z,9.20
2017-12-30T13:33:52.200Z,9.20
2017-12-30T13:36:19.696Z,9.20
2017-12-30T13:38:47.141Z,9.20
2017-12-30T13:41:14.589Z,9.40
2017-12-30T13:43:42.043Z,9.40
2017-12-30T13:46:09.498Z,9.50
2017-12-30T13:48:36.989Z,9.50
2017-12-30T13:51:05.199Z,9.50
2017-12-30T13:53:32.651Z,9.50
2017-12-30T13:56:00.150Z,9.50
2017-12-30T13:58:27.632Z,9.60
2017-12-30T14:00:55.844Z,9.70
2017-12-30T14:03:23.288Z,9.70
2017-12-30T14:05:50.727Z,9.60
2017-12-30T14:08:18.172Z,9.70
2017-12-30T14:10:46.395Z,9.70
2017-12-30T14:13:13.844Z,9.70
2017-12-30T14:15:41.297Z,9.70
2017-12-30T14:18:08.790Z,9.80
2017-12-30T14:20:36.245Z,9.80
2017-12-30T14:23:03.724Z,9.90
2017-12-30T14:25:31.978Z,9.80
2017-12-30T14:27:59.409Z,9.80
2017-12-30T14:30:26.857Z,9.90
2017-12-30T14:32:54.304Z,10.00
2017-12-30T14:35:21.763Z,10.10
2017-12-30T14:37:49.212Z,10.00
2017-12-30T14:40:16.670Z,10.10
2017-12-30T14:42:44.124Z,10.10
2017-12-30T14:45:11.611Z,10.30
2017-12-30T14:47:39.105Z,10.30
2017-12-30T14:50:07.320Z,10.40
2017-12-30T14:52:34.771Z,10.40
2017-12-30T14:55:02.226Z,10.40
2017-12-30T14:57:29.679Z,10.50
2017-12-30T14:59:57.145Z,10.50
2017-12-30T15:02:24.575Z,10.50
2017-12-30T15:04:52.065Z,10.50
2017-12-30T15:07:19.532Z,10.50
2017-12-30T15:09:46.997Z,10.40
2017-12-30T15:12:14.450Z,10.40
2017-12-30T15:14:41.991Z,10.40
2017-12-30T15:17:09.439Z,10.50
2017-12-30T15:19:36.892Z,10.40
2017-12-30T15:22:04.348Z,10.60
2017-12-30T15:24:31.802Z,10.70
2017-12-30T15:26:59.257Z,10.90
2017-12-30T15:29:26.714Z,11.10
2017-12-30T15:31:54.175Z,11.20
2017-12-30T15:34:21.629Z,11.30
2017-12-30T15:36:49.144Z,11.40
2017-12-30T15:39:16.639Z,11.40
2017-12-30T15:41:44.082Z,11.40
2017-12-30T15:44:11.522Z,11.50
2017-12-30T15:46:39.788Z,11.50
2017-12-30T15:49:07.235Z,11.50
2017-12-30T15:51:35.491Z,11.40
2017-12-30T15:54:02.977Z,11.40
2017-12-30T15:56:31.187Z,11.30
2017-12-30T15:58:58.646Z,11.30
2017-12-30T16:01:26.104Z,11.30
2017-12-30T16:03:53.558Z,11.30
2017-12-30T16:06:21.010Z,11.30
2017-12-30T16:08:48.466Z,11.30
2017-12-30T16:11:15.967Z,11.30
2017-12-30T16:13:43.418Z,11.40
2017-12-30T16:16:11.407Z,11.50
2017-12-30T16:18:39.670Z,11.50
2017-12-30T16:21:07.430Z,11.60
2017-12-30T16:23:35.674Z,11.60
2017-12-30T16:26:03.369Z,11.50
2017-12-30T16:28:31.705Z,11.60
2017-12-30T16:30:59.857Z,11.60
2017-12-30T16:33:27.704Z,11.60
2017-12-30T16:35:55.215Z,11.70
2017-12-30T16:38:22.704Z,11.90
2017-12-30T16:40:50.163Z,11.90
2017-12-30T16:43:17.608Z,11.90
2017-12-30T16:45:45.074Z,11.90
2017-12-30T16:48:12.518Z,11.90
2017-12-30T16:50:39.959Z,12.00
2017-12-30T16:53:07.419Z,12.00
2017-12-30T16:55:34.966Z,12.00
2017-12-30T16:58:02.575Z,12.00
2017-12-30T17:00:30.795Z,12.20
2017-12-30T17:02:58.257Z,12.20
2017-12-30T17:05:25.698Z,12.20
2017-12-30T17:07:53.194Z,12.20
2017-12-30T17:10:20.643Z,12.20
2017-12-30T17:12:48.136Z,12.20
2017-12-30T17:15:16.357Z,12.20
2017-12-30T17:17:43.807Z,12.20
2017-12-30T17:20:11.298Z,12.20
2017-12-30T17:22:38.773Z,12.20
2017-12-30T17:25:06.986Z,12.30
2017-12-30T17:27:35.199Z,12.30
2017-12-30T17:30:02.690Z,12.30
2017-12-30T17:32:30.949Z,12.40
2017-12-30T17:34:59.164Z,12.40
2017-12-30T17:37:26.615Z,12.40
2017-12-30T17:39:54.077Z,12.60
2017-12-30T17:42:21.532Z,12.70
2017-12-30T17:44:49.016Z,12.80
2017-12-30T17:47:16.504Z,12.80
2017-12-30T17:49:44.722Z,12.80
2017-12-30T17:52:12.208Z,12.80
2017-12-30T17:54:39.650Z,12.80
2017-12-30T17:57:07.146Z,12.90
2017-12-30T17:59:34.641Z,13.00
2017-12-30T18:02:02.145Z,13.00
2017-12-30T18:04:29.645Z,13.00
2017-12-30T18:06:57.138Z,13.00
2017-12-30T18:09:24.627Z,12.90
2017-12-30T18:11:52.127Z,12.90
2017-12-30T18:14:19.622Z,12.90
2017-12-30T18:16:47.122Z,12.80
2017-12-30T18:19:15.365Z,12.80
2017-12-30T18:21:42.866Z,12.80
2017-12-30T18:24:10.370Z,12.80
2017-12-30T18:26:37.871Z,12.70
2017-12-30T18:29:05.320Z,12.70
2017-12-30T18:31:32.831Z,12.60
2017-12-30T18:34:00.317Z,12.50
2017-12-30T18:36:28.594Z,12.50
2017-12-30T18:38:56.806Z,12.50
2017-12-30T18:41:24.304Z,12.50
2017-12-30T18:43:52.606Z,12.40
2017-12-30T18:46:20.875Z,12.30
2017-12-30T18:48:48.370Z,12.30
2017-12-30T18:51:15.861Z,12.40
2017-12-30T18:53:43.340Z,12.30
2017-12-30T18:56:10.822Z,12.30
2017-12-30T18:58:38.312Z,12.30
2017-12-30T19:01:05.833Z,12.40
2017-12-30T19:03:34.030Z,12.50
2017-12-30T19:06:01.524Z,12.50
2017-12-30T19:08:29.016Z,12.50
2017-12-30T19:10:57.220Z,12.50
2017-12-30T19:13:24.713Z,12.50
2017-12-30T19:15:52.192Z,12.60
2017-12-30T19:18:20.466Z,12.50
2017-12-30T19:20:48.726Z,12.50
2017-12-30T19:23:16.221Z,12.50
2017-12-30T19:25:43.710Z,12.50
2017-12-30T19:28:11.266Z,12.50
2017-12-30T19:30:39.481Z,12.50
2017-12-30T19:33:06.983Z,12.50
2017-12-30T19:35:34.470Z,12.50
2017-12-30T19:38:01.969Z,12.50
2017-12-30T19:40:29.458Z,12.50
2017-12-30T19:42:56.959Z,12.50
2017-12-30T19:45:24.443Z,12.50
2017-12-30T19:47:52.710Z,12.50
2017-12-30T19:50:20.962Z,12.60
2017-12-30T19:52:48.457Z,12.50
2017-12-30T19:55:16.714Z,12.50
2017-12-30T19:57:44.990Z,12.50
2017-12-30T20:00:13.246Z,12.40
2017-12-30T20:02:40.746Z,12.40
2017-12-30T20:05:08.233Z,12.40
2017-12-30T20:07:35.737Z,12.30
2017-12-30T20:10:03.990Z,12.20
2017-12-30T20:12:31.483Z,12.20
2017-12-30T20:14:58.972Z,12.20
2017-12-30T20:17:26.474Z,12.20
2017-12-30T20:19:53.961Z,12.20
2017-12-30T20:22:21.441Z,12.10
2017-12-30T20:24:48.954Z,12.10
2017-12-30T20:27:17.230Z,12.10
2017-12-30T20:29:45.506Z,12.10
2017-12-30T20:32:13.786Z,12.10
2017-12-30T20:34:42.061Z,12.10
2017-12-30T20:37:10.348Z,12.10
2017-12-30T20:39:37.870Z,12.10
2017-12-30T20:42:05.365Z,12.10
2017-12-30T20:44:32.869Z,12.10
2017-12-30T20:47:00.366Z,12.10
2017-12-30T20:49:27.875Z,12.10
2017-12-30T20:51:55.371Z,12.10
2017-12-30T20:54:23.705Z,12.10
2017-12-30T20:56:51.154Z,12.10
2017-12-30T20:59:18.645Z,12.10
2017-12-30T21:01:46.138Z,12.00
2017-12-30T21:04:13.650Z,12.00
2017-12-30T21:06:41.134Z,12.00
2017-12-30T21:09:09.411Z,12.00
2017-12-30T21:11:36.914Z,12.00
2017-12-30T21:14:04.421Z,12.00
2017-12-30T21:16:32.710Z,12.10
2017-12-30T21:19:00.970Z,12.10
2017-12-30T21:21:29.246Z,12.10
2017-12-30T21:23:57.523Z,12.00
2017-12-30T21:26:25.797Z,12.10
2017-12-30T21:28:54.066Z,12.10
2017-12-30T21:31:21.605Z,12.00
2017-12-30T21:33:49.114Z,12.10
2017-12-30T21:36:16.614Z,12.10
2017-12-30T21:38:44.110Z,12.00
2017-12-30T21:41:12.375Z,12.10
2017-12-30T21:43:40.630Z,12.10
2017-12-30T21:46:08.136Z,12.00
2017-12-30T21:48:35.635Z,12.10
2017-12-30T21:51:03.137Z,12.10
2017-12-30T21:53:31.399Z,12.10
2017-12-30T21:55:59.674Z,12.10
2017-12-30T21:58:27.929Z,12.20
2017-12-30T22:00:55.423Z,12.10
2017-12-30T22:03:22.923Z,12.10
2017-12-30T22:05:50.422Z,12.20
2017-12-30T22:08:18.681Z,12.20
2017-12-30T22:10:46.186Z,12.20
2017-12-30T22:13:13.683Z,12.20
2017-12-30T22:15:41.186Z,12.20
2017-12-30T22:18:08.677Z,12.20
2017-12-30T22:20:36.181Z,12.20
2017-12-30T22:23:04.439Z,12.30
2017-12-30T22:25:31.929Z,12.30
2017-12-30T22:28:00.179Z,12.30
2017-12-30T22:30:27.678Z,12.20
2017-12-30T22:32:55.169Z,12.30
2017-12-30T22:35:22.653Z,12.30
2017-12-30T22:37:50.914Z,12.30
2017-12-30T22:40:18.855Z,12.30
2017-12-30T22:42:46.339Z,12.30
2017-12-30T22:45:13.861Z,12.40
2017-12-30T22:47:41.350Z,12.40
2017-12-30T22:50:08.838Z,12.50
2017-12-30T22:52:37.102Z,12.50
2017-12-30T22:55:05.363Z,12.60
2017-12-30T22:57:32.860Z,12.50
2017-12-30T23:00:00.350Z,12.60
2017-12-30T23:02:27.846Z,12.60
2017-12-30T23:04:55.325Z,12.60
2017-12-30T23:07:22.823Z,12.60
2017-12-30T23:09:50.318Z,12.60
2017-12-30T23:12:18.594Z,12.70
2017-12-30T23:14:46.850Z,12.80
2017-12-30T23:17:15.070Z,12.80
2017-12-30T23:19:42.583Z,12.80
2017-12-30T23:22:10.075Z,12.90
2017-12-30T23:24:38.335Z,12.80
2017-12-30T23:27:06.641Z,12.80
2017-12-30T23:29:34.114Z,12.80
2017-12-30T23:32:02.386Z,12.80
2017-12-30T23:34:29.885Z,12.90
2017-12-30T23:36:57.378Z,12.90
2017-12-30T23:39:24.875Z,12.90
2017-12-30T23:41:52.382Z,13.00
2017-12-30T23:44:20.635Z,12.90
2017-12-30T23:46:48.134Z,12.90
2017-12-30T23:49:15.646Z,12.90
2017-12-30T23:51:43.138Z,12.90
2017-12-30T23:54:10.628Z,12.90
2017-12-30T23:56:38.124Z,12.90
2017-12-30T23:59:05.600Z,13.00
